sensor_id;sensor_type;location;lat;lon;timestamp;P1;durP1;ratioP1;P2;durP2;ratioP2
49942;SDS011;36011;53.362;58.948;2023-02-10T00:00:25;7.10;;;3.00;;
49942;SDS011;36011;53.362;58.948;2023-02-10T00:03:26;7.03;;;3.03;;
49942;SDS011;36011;53.362;58.948;2023-02-10T00:06:28;8.55;;;2.92;;
49942;SDS011;36011;53.362;58.948;2023-02-10T00:09:32;2.83;;;1.60;;
49942;SDS011;36011;53.362;58.948;2023-02-10T00:12:36;8.27;;;3.13;;
49942;SDS011;36011;53.362;58.948;2023-02-10T00:15:38;9.93;;;4.18;;
49942;SDS011;36011;53.362;58.948;2023-02-10T00:18:41;8.68;;;4.25;;
49942;SDS011;36011;53.362;58.948;2023-02-10T00:21:45;7.82;;;3.60;;
49942;SDS011;36011;53.362;58.948;2023-02-10T00:24:51;12.38;;;4.55;;
49942;SDS011;36011;53.362;58.948;2023-02-10T00:27:56;4.63;;;2.95;;
49942;SDS011;36011;53.362;58.948;2023-02-10T00:31:04;8.30;;;2.78;;
49942;SDS011;36011;53.362;58.948;2023-02-10T00:34:11;9.00;;;3.83;;
49942;SDS011;36011;53.362;58.948;2023-02-10T00:37:15;6.82;;;3.50;;
49942;SDS011;36011;53.362;58.948;2023-02-10T00:40:16;15.85;;;6.07;;
49942;SDS011;36011;53.362;58.948;2023-02-10T00:43:21;18.55;;;7.03;;
49942;SDS011;36011;53.362;58.948;2023-02-10T00:46:24;9.65;;;3.60;;
49942;SDS011;36011;53.362;58.948;2023-02-10T00:49:29;6.75;;;2.72;;
49942;SDS011;36011;53.362;58.948;2023-02-10T00:52:35;6.03;;;2.63;;
49942;SDS011;36011;53.362;58.948;2023-02-10T00:55:37;9.63;;;3.65;;
49942;SDS011;36011;53.362;58.948;2023-02-10T00:58:40;4.85;;;2.80;;
49942;SDS011;36011;53.362;58.948;2023-02-10T01:01:44;6.30;;;3.28;;
49942;SDS011;36011;53.362;58.948;2023-02-10T01:04:48;6.55;;;3.20;;
49942;SDS011;36011;53.362;58.948;2023-02-10T01:07:51;4.88;;;2.63;;
49942;SDS011;36011;53.362;58.948;2023-02-10T01:11:03;6.53;;;3.42;;
49942;SDS011;36011;53.362;58.948;2023-02-10T01:14:09;7.43;;;3.00;;
49942;SDS011;36011;53.362;58.948;2023-02-10T01:17:14;6.72;;;2.65;;
49942;SDS011;36011;53.362;58.948;2023-02-10T01:20:17;8.68;;;3.20;;
49942;SDS011;36011;53.362;58.948;2023-02-10T01:26:23;9.38;;;3.53;;
49942;SDS011;36011;53.362;58.948;2023-02-10T01:29:29;8.18;;;3.55;;
49942;SDS011;36011;53.362;58.948;2023-02-10T01:32:35;8.40;;;2.53;;
49942;SDS011;36011;53.362;58.948;2023-02-10T01:35:37;6.47;;;3.42;;
49942;SDS011;36011;53.362;58.948;2023-02-10T01:38:39;6.23;;;2.97;;
49942;SDS011;36011;53.362;58.948;2023-02-10T01:41:45;7.90;;;3.72;;
49942;SDS011;36011;53.362;58.948;2023-02-10T01:47:49;7.18;;;3.28;;
49942;SDS011;36011;53.362;58.948;2023-02-10T01:54:00;6.45;;;3.67;;
49942;SDS011;36011;53.362;58.948;2023-02-10T01:57:02;4.75;;;3.05;;
49942;SDS011;36011;53.362;58.948;2023-02-10T02:00:04;9.02;;;3.72;;
49942;SDS011;36011;53.362;58.948;2023-02-10T02:03:11;3.28;;;1.85;;
49942;SDS011;36011;53.362;58.948;2023-02-10T02:06:16;3.67;;;2.33;;
49942;SDS011;36011;53.362;58.948;2023-02-10T02:09:19;5.18;;;2.13;;
49942;SDS011;36011;53.362;58.948;2023-02-10T02:12:30;2.30;;;1.70;;
49942;SDS011;36011;53.362;58.948;2023-02-10T02:15:59;4.00;;;2.00;;
49942;SDS011;36011;53.362;58.948;2023-02-10T02:22:35;4.85;;;2.13;;
49942;SDS011;36011;53.362;58.948;2023-02-10T02:29:34;2.65;;;1.38;;
49942;SDS011;36011;53.362;58.948;2023-02-10T02:32:49;2.45;;;1.02;;
49942;SDS011;36011;53.362;58.948;2023-02-10T02:36:12;2.47;;;1.15;;
49942;SDS011;36011;53.362;58.948;2023-02-10T02:39:17;1.15;;;0.95;;
49942;SDS011;36011;53.362;58.948;2023-02-10T02:52:20;2.83;;;1.00;;
49942;SDS011;36011;53.362;58.948;2023-02-10T02:55:42;3.38;;;1.17;;
49942;SDS011;36011;53.362;58.948;2023-02-10T03:02:16;5.95;;;1.40;;
49942;SDS011;36011;53.362;58.948;2023-02-10T03:05:21;2.08;;;1.05;;
49942;SDS011;36011;53.362;58.948;2023-02-10T03:08:32;3.33;;;1.35;;
49942;SDS011;36011;53.362;58.948;2023-02-10T03:11:35;5.13;;;1.20;;
49942;SDS011;36011;53.362;58.948;2023-02-10T03:14:37;3.20;;;1.67;;
49942;SDS011;36011;53.362;58.948;2023-02-10T03:17:44;4.45;;;1.92;;
49942;SDS011;36011;53.362;58.948;2023-02-10T03:20:47;7.75;;;2.17;;
49942;SDS011;36011;53.362;58.948;2023-02-10T03:23:54;2.42;;;2.03;;
49942;SDS011;36011;53.362;58.948;2023-02-10T03:26:55;32.45;;;14.73;;
49942;SDS011;36011;53.362;58.948;2023-02-10T03:29:57;7.07;;;3.50;;
49942;SDS011;36011;53.362;58.948;2023-02-10T03:32:58;5.25;;;2.50;;
49942;SDS011;36011;53.362;58.948;2023-02-10T03:36:02;5.22;;;2.47;;
49942;SDS011;36011;53.362;58.948;2023-02-10T03:39:06;8.18;;;2.72;;
49942;SDS011;36011;53.362;58.948;2023-02-10T03:42:07;3.95;;;1.90;;
49942;SDS011;36011;53.362;58.948;2023-02-10T03:45:09;4.88;;;1.70;;
49942;SDS011;36011;53.362;58.948;2023-02-10T03:48:10;3.72;;;1.60;;
49942;SDS011;36011;53.362;58.948;2023-02-10T03:51:14;265.63;;;109.82;;
49942;SDS011;36011;53.362;58.948;2023-02-10T03:54:15;11.02;;;5.38;;
49942;SDS011;36011;53.362;58.948;2023-02-10T03:57:17;10.55;;;3.47;;
49942;SDS011;36011;53.362;58.948;2023-02-10T04:00:19;2.63;;;1.77;;
49942;SDS011;36011;53.362;58.948;2023-02-10T04:03:21;3.08;;;2.08;;
49942;SDS011;36011;53.362;58.948;2023-02-10T04:06:22;3.55;;;2.00;;
49942;SDS011;36011;53.362;58.948;2023-02-10T04:09:27;4.53;;;2.10;;
49942;SDS011;36011;53.362;58.948;2023-02-10T04:12:29;3.67;;;2.25;;
49942;SDS011;36011;53.362;58.948;2023-02-10T04:15:31;8.57;;;2.05;;
49942;SDS011;36011;53.362;58.948;2023-02-10T04:18:39;15.52;;;6.57;;
49942;SDS011;36011;53.362;58.948;2023-02-10T04:21:42;5.72;;;2.75;;
49942;SDS011;36011;53.362;58.948;2023-02-10T04:24:43;5.30;;;2.83;;
49942;SDS011;36011;53.362;58.948;2023-02-10T04:27:47;3.50;;;2.22;;
49942;SDS011;36011;53.362;58.948;2023-02-10T04:30:54;4.75;;;2.55;;
49942;SDS011;36011;53.362;58.948;2023-02-10T04:34:03;3.17;;;2.15;;
49942;SDS011;36011;53.362;58.948;2023-02-10T04:37:05;4.10;;;2.58;;
49942;SDS011;36011;53.362;58.948;2023-02-10T04:40:06;5.80;;;2.80;;
49942;SDS011;36011;53.362;58.948;2023-02-10T04:43:08;6.20;;;2.72;;
49942;SDS011;36011;53.362;58.948;2023-02-10T04:46:10;4.88;;;2.92;;
49942;SDS011;36011;53.362;58.948;2023-02-10T04:49:14;6.18;;;3.10;;
49942;SDS011;36011;53.362;58.948;2023-02-10T04:52:16;6.13;;;3.25;;
49942;SDS011;36011;53.362;58.948;2023-02-10T04:55:18;6.25;;;3.38;;
49942;SDS011;36011;53.362;58.948;2023-02-10T04:58:20;7.80;;;4.40;;
49942;SDS011;36011;53.362;58.948;2023-02-10T05:01:22;7.88;;;3.17;;
49942;SDS011;36011;53.362;58.948;2023-02-10T05:04:29;4.68;;;2.53;;
49942;SDS011;36011;53.362;58.948;2023-02-10T05:07:35;4.80;;;3.50;;
49942;SDS011;36011;53.362;58.948;2023-02-10T05:10:39;4.03;;;2.47;;
49942;SDS011;36011;53.362;58.948;2023-02-10T05:13:40;4.72;;;2.95;;
49942;SDS011;36011;53.362;58.948;2023-02-10T05:16:47;5.13;;;2.97;;
49942;SDS011;36011;53.362;58.948;2023-02-10T05:19:48;4.88;;;3.08;;
49942;SDS011;36011;53.362;58.948;2023-02-10T05:22:54;8.18;;;3.65;;
49942;SDS011;36011;53.362;58.948;2023-02-10T05:26:00;12.05;;;4.55;;
49942;SDS011;36011;53.362;58.948;2023-02-10T05:29:02;7.43;;;4.47;;
49942;SDS011;36011;53.362;58.948;2023-02-10T05:32:08;11.15;;;5.40;;
49942;SDS011;36011;53.362;58.948;2023-02-10T05:35:10;11.07;;;5.53;;
49942;SDS011;36011;53.362;58.948;2023-02-10T05:38:11;10.77;;;4.85;;
49942;SDS011;36011;53.362;58.948;2023-02-10T05:41:15;13.13;;;5.88;;
49942;SDS011;36011;53.362;58.948;2023-02-10T05:44:19;12.25;;;6.68;;
49942;SDS011;36011;53.362;58.948;2023-02-10T05:47:21;14.45;;;5.68;;
49942;SDS011;36011;53.362;58.948;2023-02-10T05:50:23;13.68;;;5.13;;
49942;SDS011;36011;53.362;58.948;2023-02-10T05:53:24;8.35;;;4.40;;
49942;SDS011;36011;53.362;58.948;2023-02-10T05:56:30;15.45;;;5.28;;
49942;SDS011;36011;53.362;58.948;2023-02-10T05:59:34;9.93;;;4.63;;
49942;SDS011;36011;53.362;58.948;2023-02-10T06:02:35;6.72;;;3.35;;
49942;SDS011;36011;53.362;58.948;2023-02-10T06:05:39;6.65;;;3.05;;
49942;SDS011;36011;53.362;58.948;2023-02-10T06:08:41;5.03;;;2.92;;
49942;SDS011;36011;53.362;58.948;2023-02-10T06:11:43;7.80;;;3.65;;
49942;SDS011;36011;53.362;58.948;2023-02-10T06:14:44;7.45;;;3.40;;
49942;SDS011;36011;53.362;58.948;2023-02-10T06:17:46;10.80;;;3.47;;
49942;SDS011;36011;53.362;58.948;2023-02-10T06:20:50;11.25;;;2.95;;
49942;SDS011;36011;53.362;58.948;2023-02-10T06:23:54;8.32;;;3.42;;
49942;SDS011;36011;53.362;58.948;2023-02-10T06:26:58;12.50;;;5.28;;
49942;SDS011;36011;53.362;58.948;2023-02-10T06:30:00;8.63;;;3.30;;
49942;SDS011;36011;53.362;58.948;2023-02-10T06:33:01;5.85;;;2.78;;
49942;SDS011;36011;53.362;58.948;2023-02-10T06:36:03;5.82;;;3.10;;
49942;SDS011;36011;53.362;58.948;2023-02-10T06:39:07;9.30;;;3.40;;
49942;SDS011;36011;53.362;58.948;2023-02-10T06:45:14;4.20;;;2.53;;
49942;SDS011;36011;53.362;58.948;2023-02-10T06:48:17;5.38;;;2.55;;
49942;SDS011;36011;53.362;58.948;2023-02-10T06:51:18;5.97;;;3.00;;
49942;SDS011;36011;53.362;58.948;2023-02-10T06:57:25;4.05;;;2.53;;
49942;SDS011;36011;53.362;58.948;2023-02-10T07:00:29;7.45;;;3.17;;
49942;SDS011;36011;53.362;58.948;2023-02-10T07:06:33;5.45;;;2.63;;
49942;SDS011;36011;53.362;58.948;2023-02-10T07:09:37;12.45;;;7.30;;
49942;SDS011;36011;53.362;58.948;2023-02-10T07:12:41;3.72;;;2.28;;
49942;SDS011;36011;53.362;58.948;2023-02-10T07:15:42;5.22;;;3.80;;
49942;SDS011;36011;53.362;58.948;2023-02-10T07:18:46;6.07;;;3.75;;
49942;SDS011;36011;53.362;58.948;2023-02-10T07:21:49;4.97;;;3.25;;
49942;SDS011;36011;53.362;58.948;2023-02-10T07:24:56;5.75;;;2.60;;
49942;SDS011;36011;53.362;58.948;2023-02-10T07:28:00;4.57;;;2.35;;
49942;SDS011;36011;53.362;58.948;2023-02-10T07:31:01;2.55;;;1.85;;
49942;SDS011;36011;53.362;58.948;2023-02-10T07:34:08;4.75;;;2.42;;
49942;SDS011;36011;53.362;58.948;2023-02-10T07:37:09;5.65;;;2.58;;
49942;SDS011;36011;53.362;58.948;2023-02-10T07:40:11;4.60;;;2.67;;
49942;SDS011;36011;53.362;58.948;2023-02-10T07:43:13;3.22;;;2.53;;
49942;SDS011;36011;53.362;58.948;2023-02-10T07:46:17;3.17;;;1.95;;
49942;SDS011;36011;53.362;58.948;2023-02-10T07:49:19;2.20;;;1.93;;
49942;SDS011;36011;53.362;58.948;2023-02-10T07:52:23;5.13;;;3.15;;
49942;SDS011;36011;53.362;58.948;2023-02-10T07:55:25;5.30;;;2.95;;
49942;SDS011;36011;53.362;58.948;2023-02-10T07:58:29;3.35;;;2.35;;
49942;SDS011;36011;53.362;58.948;2023-02-10T08:01:30;4.55;;;2.38;;
49942;SDS011;36011;53.362;58.948;2023-02-10T08:04:32;2.58;;;1.50;;
49942;SDS011;36011;53.362;58.948;2023-02-10T08:07:45;1.85;;;1.17;;
49942;SDS011;36011;53.362;58.948;2023-02-10T08:10:46;1.63;;;1.10;;
49942;SDS011;36011;53.362;58.948;2023-02-10T08:13:49;2.38;;;1.30;;
49942;SDS011;36011;53.362;58.948;2023-02-10T08:16:54;2.42;;;1.83;;
49942;SDS011;36011;53.362;58.948;2023-02-10T08:19:59;3.75;;;1.60;;
49942;SDS011;36011;53.362;58.948;2023-02-10T08:23:05;2.25;;;1.40;;
49942;SDS011;36011;53.362;58.948;2023-02-10T08:26:08;2.22;;;1.08;;
49942;SDS011;36011;53.362;58.948;2023-02-10T08:29:13;1.60;;;1.40;;
49942;SDS011;36011;53.362;58.948;2023-02-10T08:32:19;1.35;;;1.05;;
49942;SDS011;36011;53.362;58.948;2023-02-10T08:35:23;1.95;;;1.33;;
49942;SDS011;36011;53.362;58.948;2023-02-10T08:38:27;2.50;;;1.73;;
49942;SDS011;36011;53.362;58.948;2023-02-10T08:41:32;2.47;;;1.90;;
49942;SDS011;36011;53.362;58.948;2023-02-10T08:44:36;3.30;;;1.83;;
49942;SDS011;36011;53.362;58.948;2023-02-10T08:47:43;1.83;;;1.58;;
49942;SDS011;36011;53.362;58.948;2023-02-10T08:50:47;2.28;;;1.42;;
49942;SDS011;36011;53.362;58.948;2023-02-10T08:53:48;1.95;;;1.52;;
49942;SDS011;36011;53.362;58.948;2023-02-10T08:56:52;2.60;;;1.48;;
49942;SDS011;36011;53.362;58.948;2023-02-10T08:59:58;1.80;;;1.58;;
49942;SDS011;36011;53.362;58.948;2023-02-10T09:03:03;2.08;;;1.42;;
49942;SDS011;36011;53.362;58.948;2023-02-10T09:09:19;2.05;;;1.30;;
49942;SDS011;36011;53.362;58.948;2023-02-10T09:12:27;2.15;;;1.45;;
49942;SDS011;36011;53.362;58.948;2023-02-10T09:15:31;3.05;;;1.65;;
49942;SDS011;36011;53.362;58.948;2023-02-10T09:18:33;2.75;;;2.15;;
49942;SDS011;36011;53.362;58.948;2023-02-10T09:21:35;4.53;;;2.25;;
49942;SDS011;36011;53.362;58.948;2023-02-10T09:24:37;3.53;;;2.67;;
49942;SDS011;36011;53.362;58.948;2023-02-10T09:27:50;1.83;;;1.60;;
49942;SDS011;36011;53.362;58.948;2023-02-10T09:30:55;2.47;;;1.50;;
49942;SDS011;36011;53.362;58.948;2023-02-10T09:33:59;3.25;;;2.03;;
49942;SDS011;36011;53.362;58.948;2023-02-10T09:37:01;4.30;;;2.45;;
49942;SDS011;36011;53.362;58.948;2023-02-10T09:40:06;1.50;;;1.17;;
49942;SDS011;36011;53.362;58.948;2023-02-10T09:50:05;2.15;;;1.30;;
49942;SDS011;36011;53.362;58.948;2023-02-10T09:53:13;6.70;;;1.58;;
49942;SDS011;36011;53.362;58.948;2023-02-10T09:56:25;3.95;;;1.02;;
49942;SDS011;36011;53.362;58.948;2023-02-10T09:59:29;2.03;;;1.17;;
49942;SDS011;36011;53.362;58.948;2023-02-10T10:02:40;2.42;;;1.00;;
49942;SDS011;36011;53.362;58.948;2023-02-10T10:05:55;3.55;;;1.35;;
49942;SDS011;36011;53.362;58.948;2023-02-10T10:09:02;3.53;;;1.77;;
49942;SDS011;36011;53.362;58.948;2023-02-10T10:12:11;5.35;;;1.50;;
49942;SDS011;36011;53.362;58.948;2023-02-10T10:15:18;4.68;;;1.50;;
49942;SDS011;36011;53.362;58.948;2023-02-10T10:18:29;4.25;;;1.50;;
49942;SDS011;36011;53.362;58.948;2023-02-10T10:21:46;2.47;;;1.30;;
49942;SDS011;36011;53.362;58.948;2023-02-10T10:31:44;2.67;;;1.80;;
49942;SDS011;36011;53.362;58.948;2023-02-10T10:34:53;2.45;;;1.40;;
49942;SDS011;36011;53.362;58.948;2023-02-10T10:37:56;2.60;;;1.10;;
49942;SDS011;36011;53.362;58.948;2023-02-10T10:41:05;3.30;;;2.25;;
49942;SDS011;36011;53.362;58.948;2023-02-10T10:44:12;8.38;;;4.22;;
49942;SDS011;36011;53.362;58.948;2023-02-10T10:50:24;2.10;;;1.30;;
49942;SDS011;36011;53.362;58.948;2023-02-10T10:56:37;3.55;;;1.35;;
49942;SDS011;36011;53.362;58.948;2023-02-10T10:59:45;4.70;;;1.52;;
49942;SDS011;36011;53.362;58.948;2023-02-10T11:02:58;4.38;;;2.00;;
49942;SDS011;36011;53.362;58.948;2023-02-10T11:06:11;2.92;;;2.00;;
49942;SDS011;36011;53.362;58.948;2023-02-10T11:09:34;5.45;;;2.17;;
49942;SDS011;36011;53.362;58.948;2023-02-10T11:12:37;4.35;;;2.50;;
49942;SDS011;36011;53.362;58.948;2023-02-10T11:18:56;3.05;;;2.00;;
49942;SDS011;36011;53.362;58.948;2023-02-10T11:22:12;5.90;;;2.40;;
49942;SDS011;36011;53.362;58.948;2023-02-10T11:28:28;4.88;;;2.42;;
49942;SDS011;36011;53.362;58.948;2023-02-10T11:31:32;3.72;;;2.28;;
49942;SDS011;36011;53.362;58.948;2023-02-10T11:34:42;4.80;;;1.80;;
49942;SDS011;36011;53.362;58.948;2023-02-10T11:37:54;3.78;;;1.80;;
49942;SDS011;36011;53.362;58.948;2023-02-10T11:41:01;3.13;;;1.65;;
49942;SDS011;36011;53.362;58.948;2023-02-10T11:44:26;5.80;;;2.38;;
49942;SDS011;36011;53.362;58.948;2023-02-10T11:47:34;7.03;;;2.35;;
49942;SDS011;36011;53.362;58.948;2023-02-10T11:50:38;4.72;;;2.65;;
49942;SDS011;36011;53.362;58.948;2023-02-10T12:10:59;7.63;;;3.85;;
49942;SDS011;36011;53.362;58.948;2023-02-10T12:17:56;8.38;;;4.32;;
49942;SDS011;36011;53.362;58.948;2023-02-10T12:53:37;11.48;;;5.30;;
49942;SDS011;36011;53.362;58.948;2023-02-10T13:02:56;9.32;;;4.82;;
49942;SDS011;36011;53.362;58.948;2023-02-10T13:12:39;13.23;;;4.53;;
49942;SDS011;36011;53.362;58.948;2023-02-10T13:15:56;10.05;;;3.47;;
49942;SDS011;36011;53.362;58.948;2023-02-10T13:19:11;8.57;;;2.97;;
49942;SDS011;36011;53.362;58.948;2023-02-10T13:35:22;3.97;;;2.40;;
49942;SDS011;36011;53.362;58.948;2023-02-10T13:38:27;6.03;;;2.20;;
49942;SDS011;36011;53.362;58.948;2023-02-10T13:41:36;4.43;;;2.63;;
49942;SDS011;36011;53.362;58.948;2023-02-10T13:48:30;9.52;;;2.53;;
49942;SDS011;36011;53.362;58.948;2023-02-10T13:51:43;8.27;;;2.55;;
49942;SDS011;36011;53.362;58.948;2023-02-10T13:57:58;9.63;;;3.72;;
49942;SDS011;36011;53.362;58.948;2023-02-10T14:01:40;14.20;;;4.47;;
49942;SDS011;36011;53.362;58.948;2023-02-10T14:04:50;6.43;;;3.85;;
49942;SDS011;36011;53.362;58.948;2023-02-10T14:07:55;12.00;;;4.60;;
49942;SDS011;36011;53.362;58.948;2023-02-10T14:17:27;11.02;;;4.45;;
49942;SDS011;36011;53.362;58.948;2023-02-10T14:20:36;19.88;;;5.63;;
49942;SDS011;36011;53.362;58.948;2023-02-10T14:23:40;14.35;;;4.70;;
49942;SDS011;36011;53.362;58.948;2023-02-10T14:26:46;17.13;;;5.30;;
49942;SDS011;36011;53.362;58.948;2023-02-10T14:29:51;15.55;;;6.50;;
49942;SDS011;36011;53.362;58.948;2023-02-10T14:32:59;18.77;;;7.60;;
49942;SDS011;36011;53.362;58.948;2023-02-10T14:36:18;12.52;;;6.03;;
49942;SDS011;36011;53.362;58.948;2023-02-10T14:39:22;17.30;;;7.25;;
49942;SDS011;36011;53.362;58.948;2023-02-10T14:42:31;13.80;;;6.28;;
49942;SDS011;36011;53.362;58.948;2023-02-10T14:45:33;17.95;;;6.65;;
49942;SDS011;36011;53.362;58.948;2023-02-10T14:48:42;17.20;;;7.80;;
49942;SDS011;36011;53.362;58.948;2023-02-10T14:51:44;17.40;;;7.57;;
49942;SDS011;36011;53.362;58.948;2023-02-10T14:54:46;23.63;;;9.65;;
49942;SDS011;36011;53.362;58.948;2023-02-10T14:57:50;29.98;;;13.80;;
49942;SDS011;36011;53.362;58.948;2023-02-10T15:00:54;38.92;;;19.20;;
49942;SDS011;36011;53.362;58.948;2023-02-10T15:04:16;51.30;;;20.70;;
49942;SDS011;36011;53.362;58.948;2023-02-10T15:07:21;44.38;;;20.05;;
49942;SDS011;36011;53.362;58.948;2023-02-10T15:10:33;46.88;;;21.85;;
49942;SDS011;36011;53.362;58.948;2023-02-10T15:13:44;52.95;;;22.35;;
49942;SDS011;36011;53.362;58.948;2023-02-10T15:16:51;49.80;;;24.80;;
49942;SDS011;36011;53.362;58.948;2023-02-10T15:19:58;76.65;;;34.30;;
49942;SDS011;36011;53.362;58.948;2023-02-10T15:23:17;107.85;;;48.63;;
49942;SDS011;36011;53.362;58.948;2023-02-10T15:26:24;126.18;;;53.88;;
49942;SDS011;36011;53.362;58.948;2023-02-10T15:29:34;122.18;;;50.60;;
49942;SDS011;36011;53.362;58.948;2023-02-10T15:32:41;113.82;;;50.65;;
49942;SDS011;36011;53.362;58.948;2023-02-10T15:35:55;94.82;;;39.72;;
49942;SDS011;36011;53.362;58.948;2023-02-10T15:45:16;120.80;;;50.90;;
49942;SDS011;36011;53.362;58.948;2023-02-10T15:48:22;137.00;;;54.85;;
49942;SDS011;36011;53.362;58.948;2023-02-10T15:51:29;201.07;;;70.70;;
49942;SDS011;36011;53.362;58.948;2023-02-10T15:54:39;247.30;;;87.20;;
49942;SDS011;36011;53.362;58.948;2023-02-10T16:00:48;205.85;;;75.40;;
49942;SDS011;36011;53.362;58.948;2023-02-10T16:03:52;217.73;;;76.88;;
49942;SDS011;36011;53.362;58.948;2023-02-10T16:06:53;239.90;;;84.32;;
49942;SDS011;36011;53.362;58.948;2023-02-10T16:09:55;234.15;;;83.38;;
49942;SDS011;36011;53.362;58.948;2023-02-10T16:12:59;172.32;;;64.95;;
49942;SDS011;36011;53.362;58.948;2023-02-10T16:16:02;188.10;;;67.15;;
49942;SDS011;36011;53.362;58.948;2023-02-10T16:19:09;191.98;;;68.47;;
49942;SDS011;36011;53.362;58.948;2023-02-10T16:22:12;177.30;;;66.40;;
49942;SDS011;36011;53.362;58.948;2023-02-10T16:25:19;138.32;;;56.63;;
49942;SDS011;36011;53.362;58.948;2023-02-10T16:28:26;149.93;;;56.70;;
49942;SDS011;36011;53.362;58.948;2023-02-10T16:31:30;133.43;;;52.72;;
49942;SDS011;36011;53.362;58.948;2023-02-10T16:34:36;111.80;;;46.17;;
49942;SDS011;36011;53.362;58.948;2023-02-10T16:37:46;96.60;;;40.22;;
49942;SDS011;36011;53.362;58.948;2023-02-10T16:40:52;111.57;;;44.45;;
49942;SDS011;36011;53.362;58.948;2023-02-10T16:43:56;110.40;;;48.78;;
49942;SDS011;36011;53.362;58.948;2023-02-10T16:47:00;113.50;;;47.85;;
49942;SDS011;36011;53.362;58.948;2023-02-10T16:50:03;106.18;;;46.22;;
49942;SDS011;36011;53.362;58.948;2023-02-10T16:53:10;96.07;;;43.90;;
49942;SDS011;36011;53.362;58.948;2023-02-10T16:56:15;103.20;;;42.88;;
49942;SDS011;36011;53.362;58.948;2023-02-10T16:59:18;83.50;;;38.70;;
49942;SDS011;36011;53.362;58.948;2023-02-10T17:02:22;75.40;;;34.13;;
49942;SDS011;36011;53.362;58.948;2023-02-10T17:05:23;62.60;;;30.35;;
49942;SDS011;36011;53.362;58.948;2023-02-10T17:08:28;72.88;;;33.63;;
49942;SDS011;36011;53.362;58.948;2023-02-10T17:11:29;73.97;;;35.25;;
49942;SDS011;36011;53.362;58.948;2023-02-10T17:14:35;62.42;;;30.65;;
49942;SDS011;36011;53.362;58.948;2023-02-10T17:17:37;60.08;;;28.38;;
49942;SDS011;36011;53.362;58.948;2023-02-10T17:20:41;45.08;;;19.42;;
49942;SDS011;36011;53.362;58.948;2023-02-10T17:23:43;48.67;;;20.17;;
49942;SDS011;36011;53.362;58.948;2023-02-10T17:26:50;51.58;;;22.00;;
49942;SDS011;36011;53.362;58.948;2023-02-10T17:29:54;53.70;;;21.27;;
49942;SDS011;36011;53.362;58.948;2023-02-10T17:32:58;60.03;;;22.25;;
49942;SDS011;36011;53.362;58.948;2023-02-10T17:36:02;56.20;;;24.08;;
49942;SDS011;36011;53.362;58.948;2023-02-10T17:39:06;60.20;;;27.38;;
49942;SDS011;36011;53.362;58.948;2023-02-10T17:42:45;64.57;;;26.98;;
49942;SDS011;36011;53.362;58.948;2023-02-10T17:45:53;65.75;;;26.85;;
49942;SDS011;36011;53.362;58.948;2023-02-10T17:48:56;54.33;;;25.17;;
49942;SDS011;36011;53.362;58.948;2023-02-10T17:52:01;61.20;;;27.42;;
49942;SDS011;36011;53.362;58.948;2023-02-10T17:55:05;62.00;;;27.45;;
49942;SDS011;36011;53.362;58.948;2023-02-10T17:58:07;59.78;;;25.98;;
49942;SDS011;36011;53.362;58.948;2023-02-10T18:01:30;66.75;;;26.45;;
49942;SDS011;36011;53.362;58.948;2023-02-10T18:04:34;72.78;;;29.45;;
49942;SDS011;36011;53.362;58.948;2023-02-10T18:07:40;72.93;;;28.45;;
49942;SDS011;36011;53.362;58.948;2023-02-10T18:10:47;69.40;;;31.48;;
49942;SDS011;36011;53.362;58.948;2023-02-10T18:13:52;68.65;;;31.02;;
49942;SDS011;36011;53.362;58.948;2023-02-10T18:16:53;81.75;;;31.55;;
49942;SDS011;36011;53.362;58.948;2023-02-10T18:19:56;68.70;;;31.13;;
49942;SDS011;36011;53.362;58.948;2023-02-10T18:22:58;71.50;;;29.67;;
49942;SDS011;36011;53.362;58.948;2023-02-10T18:26:02;80.18;;;33.15;;
49942;SDS011;36011;53.362;58.948;2023-02-10T18:29:03;59.10;;;26.83;;
49942;SDS011;36011;53.362;58.948;2023-02-10T18:32:08;53.97;;;24.58;;
49942;SDS011;36011;53.362;58.948;2023-02-10T18:35:14;51.00;;;22.88;;
49942;SDS011;36011;53.362;58.948;2023-02-10T18:38:18;51.47;;;23.45;;
49942;SDS011;36011;53.362;58.948;2023-02-10T18:41:24;53.78;;;24.23;;
49942;SDS011;36011;53.362;58.948;2023-02-10T18:44:28;50.42;;;20.55;;
49942;SDS011;36011;53.362;58.948;2023-02-10T18:47:32;49.00;;;20.52;;
49942;SDS011;36011;53.362;58.948;2023-02-10T18:50:34;48.85;;;20.98;;
49942;SDS011;36011;53.362;58.948;2023-02-10T18:53:40;39.60;;;20.38;;
49942;SDS011;36011;53.362;58.948;2023-02-10T18:56:44;56.20;;;26.38;;
49942;SDS011;36011;53.362;58.948;2023-02-10T18:59:50;53.65;;;25.17;;
49942;SDS011;36011;53.362;58.948;2023-02-10T19:02:56;53.22;;;25.33;;
49942;SDS011;36011;53.362;58.948;2023-02-10T19:06:04;56.30;;;26.88;;
49942;SDS011;36011;53.362;58.948;2023-02-10T19:09:06;77.63;;;31.33;;
49942;SDS011;36011;53.362;58.948;2023-02-10T19:12:10;74.90;;;31.20;;
49942;SDS011;36011;53.362;58.948;2023-02-10T19:15:12;67.13;;;29.15;;
49942;SDS011;36011;53.362;58.948;2023-02-10T19:18:16;55.88;;;24.35;;
49942;SDS011;36011;53.362;58.948;2023-02-10T19:21:20;65.43;;;24.90;;
49942;SDS011;36011;53.362;58.948;2023-02-10T19:24:26;62.40;;;25.25;;
49942;SDS011;36011;53.362;58.948;2023-02-10T19:27:27;44.35;;;21.05;;
49942;SDS011;36011;53.362;58.948;2023-02-10T19:30:34;64.78;;;26.42;;
49942;SDS011;36011;53.362;58.948;2023-02-10T19:33:38;40.03;;;15.80;;
49942;SDS011;36011;53.362;58.948;2023-02-10T19:36:49;32.20;;;13.07;;
49942;SDS011;36011;53.362;58.948;2023-02-10T19:39:56;28.23;;;13.55;;
49942;SDS011;36011;53.362;58.948;2023-02-10T19:42:57;24.95;;;11.32;;
49942;SDS011;36011;53.362;58.948;2023-02-10T19:45:59;21.70;;;9.52;;
49942;SDS011;36011;53.362;58.948;2023-02-10T19:49:04;25.83;;;10.20;;
49942;SDS011;36011;53.362;58.948;2023-02-10T19:52:07;17.35;;;8.60;;
49942;SDS011;36011;53.362;58.948;2023-02-10T19:55:10;15.07;;;7.35;;
49942;SDS011;36011;53.362;58.948;2023-02-10T19:58:16;19.08;;;8.45;;
49942;SDS011;36011;53.362;58.948;2023-02-10T20:01:23;16.52;;;8.45;;
49942;SDS011;36011;53.362;58.948;2023-02-10T20:04:25;17.33;;;9.48;;
49942;SDS011;36011;53.362;58.948;2023-02-10T20:07:26;24.40;;;8.32;;
49942;SDS011;36011;53.362;58.948;2023-02-10T20:10:28;19.70;;;9.32;;
49942;SDS011;36011;53.362;58.948;2023-02-10T20:13:31;23.08;;;10.15;;
49942;SDS011;36011;53.362;58.948;2023-02-10T20:16:41;38.38;;;11.50;;
49942;SDS011;36011;53.362;58.948;2023-02-10T20:19:47;40.35;;;13.70;;
49942;SDS011;36011;53.362;58.948;2023-02-10T20:22:49;33.30;;;12.20;;
49942;SDS011;36011;53.362;58.948;2023-02-10T20:25:54;47.60;;;18.77;;
49942;SDS011;36011;53.362;58.948;2023-02-10T20:28:59;39.72;;;14.32;;
49942;SDS011;36011;53.362;58.948;2023-02-10T20:32:02;36.83;;;14.53;;
49942;SDS011;36011;53.362;58.948;2023-02-10T20:35:03;21.75;;;9.90;;
49942;SDS011;36011;53.362;58.948;2023-02-10T20:38:08;17.15;;;9.25;;
49942;SDS011;36011;53.362;58.948;2023-02-10T20:41:10;19.95;;;9.13;;
49942;SDS011;36011;53.362;58.948;2023-02-10T20:44:15;32.28;;;13.75;;
49942;SDS011;36011;53.362;58.948;2023-02-10T20:47:20;30.95;;;13.70;;
49942;SDS011;36011;53.362;58.948;2023-02-10T20:50:26;31.27;;;13.63;;
49942;SDS011;36011;53.362;58.948;2023-02-10T20:53:27;32.22;;;14.32;;
49942;SDS011;36011;53.362;58.948;2023-02-10T20:56:32;25.73;;;12.30;;